sensor_id;sensor_type;location;lat;lon;timestamp;temperature;humidity
18456;DHT22;9357;49.900;8.208;2023-04-01T00:00:57;10.70;99.90
18456;DHT22;9357;49.900;8.208;2023-04-01T00:02:29;10.70;99.90
18456;DHT22;9357;49.900;8.208;2023-04-01T00:04:02;10.70;99.90
18456;DHT22;9357;49.900;8.208;2023-04-01T00:05:35;10.70;99.90
18456;DHT22;9357;49.900;8.208;2023-04-01T00:07:08;10.70;99.90
18456;DHT22;9357;49.900;8.208;2023-04-01T00:08:41;10.70;99.90
18456;DHT22;9357;49.900;8.208;2023-04-01T00:10:15;10.70;99.90
18456;DHT22;9357;49.900;8.208;2023-04-01T00:11:48;10.70;99.90
18456;DHT22;9357;49.900;8.208;2023-04-01T00:13:21;10.70;99.90
18456;DHT22;9357;49.900;8.208;2023-04-01T00:14:54;10.70;99.90
18456;DHT22;9357;49.900;8.208;2023-04-01T00:16:27;10.70;99.90
18456;DHT22;9357;49.900;8.208;2023-04-01T00:18:00;10.70;99.90
18456;DHT22;9357;49.900;8.208;2023-04-01T00:19:32;10.70;99.90
18456;DHT22;9357;49.900;8.208;2023-04-01T00:21:05;10.70;99.90
18456;DHT22;9357;49.900;8.208;2023-04-01T00:22:38;10.70;99.90
18456;DHT22;9357;49.900;8.208;2023-04-01T00:24:11;10.70;99.90
18456;DHT22;9357;49.900;8.208;2023-04-01T00:25:45;10.70;99.90
18456;DHT22;9357;49.900;8.208;2023-04-01T00:27:19;10.70;99.90
18456;DHT22;9357;49.900;8.208;2023-04-01T00:28:52;10.70;99.90
18456;DHT22;9357;49.900;8.208;2023-04-01T00:30:26;10.70;99.90
18456;DHT22;9357;49.900;8.208;2023-04-01T00:31:59;10.60;99.90
18456;DHT22;9357;49.900;8.208;2023-04-01T00:33:32;10.70;99.90
18456;DHT22;9357;49.900;8.208;2023-04-01T00:35:06;10.70;99.90
18456;DHT22;9357;49.900;8.208;2023-04-01T00:36:38;10.60;99.90
18456;DHT22;9357;49.900;8.208;2023-04-01T00:38:12;10.70;99.90
18456;DHT22;9357;49.900;8.208;2023-04-01T00:39:44;10.60;99.90
18456;DHT22;9357;49.900;8.208;2023-04-01T00:41:18;10.70;99.90
18456;DHT22;9357;49.900;8.208;2023-04-01T00:42:52;10.70;99.90
18456;DHT22;9357;49.900;8.208;2023-04-01T00:44:28;10.70;99.90
18456;DHT22;9357;49.900;8.208;2023-04-01T00:46:02;10.70;99.90
18456;DHT22;9357;49.900;8.208;2023-04-01T00:47:34;10.70;99.90
18456;DHT22;9357;49.900;8.208;2023-04-01T00:49:07;10.70;99.90
18456;DHT22;9357;49.900;8.208;2023-04-01T00:50:44;10.70;99.90
18456;DHT22;9357;49.900;8.208;2023-04-01T00:52:21;10.70;99.90
18456;DHT22;9357;49.900;8.208;2023-04-01T00:53:57;10.60;99.90
18456;DHT22;9357;49.900;8.208;2023-04-01T00:55:33;10.60;99.90
18456;DHT22;9357;49.900;8.208;2023-04-01T00:57:12;10.60;99.90
18456;DHT22;9357;49.900;8.208;2023-04-01T00:58:48;10.60;99.90
18456;DHT22;9357;49.900;8.208;2023-04-01T01:00:23;10.60;99.90
18456;DHT22;9357;49.900;8.208;2023-04-01T01:01:57;10.60;99.90
18456;DHT22;9357;49.900;8.208;2023-04-01T01:03:30;10.60;99.90
18456;DHT22;9357;49.900;8.208;2023-04-01T01:05:04;10.60;99.90
18456;DHT22;9357;49.900;8.208;2023-04-01T01:06:45;10.60;99.90
18456;DHT22;9357;49.900;8.208;2023-04-01T01:08:26;10.60;99.90
18456;DHT22;9357;49.900;8.208;2023-04-01T01:10:04;10.60;99.90
18456;DHT22;9357;49.900;8.208;2023-04-01T01:11:42;10.60;99.90
18456;DHT22;9357;49.900;8.208;2023-04-01T01:13:19;10.60;99.90
18456;DHT22;9357;49.900;8.208;2023-04-01T01:14:57;10.60;99.90
18456;DHT22;9357;49.900;8.208;2023-04-01T01:16:37;10.60;99.90
18456;DHT22;9357;49.900;8.208;2023-04-01T01:18:19;10.50;99.90
18456;DHT22;9357;49.900;8.208;2023-04-01T01:22:16;10.50;99.90
18456;DHT22;9357;49.900;8.208;2023-04-01T01:26:09;10.60;99.90
18456;DHT22;9357;49.900;8.208;2023-04-01T01:27:54;10.50;99.90
18456;DHT22;9357;49.900;8.208;2023-04-01T01:31:33;10.50;99.90
18456;DHT22;9357;49.900;8.208;2023-04-01T01:33:24;10.50;99.90
18456;DHT22;9357;49.900;8.208;2023-04-01T01:35:11;10.50;99.90
18456;DHT22;9357;49.900;8.208;2023-04-01T01:36:49;10.50;99.90
18456;DHT22;9357;49.900;8.208;2023-04-01T01:38:29;10.50;99.90
18456;DHT22;9357;49.900;8.208;2023-04-01T01:40:06;10.40;99.90
18456;DHT22;9357;49.900;8.208;2023-04-01T01:41:41;10.50;99.90
18456;DHT22;9357;49.900;8.208;2023-04-01T01:43:18;10.50;99.90
18456;DHT22;9357;49.900;8.208;2023-04-01T01:44:52;10.50;99.90
18456;DHT22;9357;49.900;8.208;2023-04-01T01:46:27;10.50;99.90
18456;DHT22;9357;49.900;8.208;2023-04-01T01:48:03;10.50;99.90
18456;DHT22;9357;49.900;8.208;2023-04-01T01:49:37;10.50;99.90
18456;DHT22;9357;49.900;8.208;2023-04-01T01:51:13;10.50;99.90
18456;DHT22;9357;49.900;8.208;2023-04-01T01:52:46;10.50;99.90
18456;DHT22;9357;49.900;8.208;2023-04-01T01:54:18;10.50;99.90
18456;DHT22;9357;49.900;8.208;2023-04-01T01:55:51;10.50;99.90
18456;DHT22;9357;49.900;8.208;2023-04-01T01:57:26;10.50;99.90
18456;DHT22;9357;49.900;8.208;2023-04-01T01:59:02;10.50;99.90
18456;DHT22;9357;49.900;8.208;2023-04-01T02:00:36;10.50;99.90
18456;DHT22;9357;49.900;8.208;2023-04-01T02:02:10;10.50;99.90
18456;DHT22;9357;49.900;8.208;2023-04-01T02:03:44;10.50;99.90
18456;DHT22;9357;49.900;8.208;2023-04-01T02:05:20;10.50;99.90
18456;DHT22;9357;49.900;8.208;2023-04-01T02:06:58;10.40;99.90
18456;DHT22;9357;49.900;8.208;2023-04-01T02:08:35;10.40;99.90
18456;DHT22;9357;49.900;8.208;2023-04-01T02:10:09;10.40;99.90
18456;DHT22;9357;49.900;8.208;2023-04-01T02:11:47;10.50;99.90
18456;DHT22;9357;49.900;8.208;2023-04-01T02:13:27;10.40;99.90
18456;DHT22;9357;49.900;8.208;2023-04-01T02:15:05;10.40;99.90
18456;DHT22;9357;49.900;8.208;2023-04-01T02:16:43;10.40;99.90
18456;DHT22;9357;49.900;8.208;2023-04-01T02:18:18;10.40;99.90
18456;DHT22;9357;49.900;8.208;2023-04-01T02:19:56;10.50;99.90
18456;DHT22;9357;49.900;8.208;2023-04-01T02:21:32;10.40;99.90
18456;DHT22;9357;49.900;8.208;2023-04-01T02:23:07;10.50;99.90
18456;DHT22;9357;49.900;8.208;2023-04-01T02:24:41;10.50;99.90
18456;DHT22;9357;49.900;8.208;2023-04-01T02:26:15;10.50;99.90
18456;DHT22;9357;49.900;8.208;2023-04-01T02:27:48;10.50;99.90
18456;DHT22;9357;49.900;8.208;2023-04-01T02:29:22;10.50;99.90
18456;DHT22;9357;49.900;8.208;2023-04-01T02:30:57;10.40;99.90
18456;DHT22;9357;49.900;8.208;2023-04-01T02:32:33;10.40;99.90
18456;DHT22;9357;49.900;8.208;2023-04-01T02:34:07;10.40;99.90
18456;DHT22;9357;49.900;8.208;2023-04-01T02:35:40;10.40;99.90
18456;DHT22;9357;49.900;8.208;2023-04-01T02:37:13;10.40;99.90
18456;DHT22;9357;49.900;8.208;2023-04-01T02:38:48;10.40;99.90
18456;DHT22;9357;49.900;8.208;2023-04-01T02:40:22;10.40;99.90
18456;DHT22;9357;49.900;8.208;2023-04-01T02:41:54;10.40;99.90
18456;DHT22;9357;49.900;8.208;2023-04-01T02:43:27;10.40;99.90
18456;DHT22;9357;49.900;8.208;2023-04-01T02:44:59;10.40;99.90
18456;DHT22;9357;49.900;8.208;2023-04-01T02:46:31;10.40;99.90
18456;DHT22;9357;49.900;8.208;2023-04-01T02:48:04;10.40;99.90
18456;DHT22;9357;49.900;8.208;2023-04-01T02:49:37;10.40;99.90
18456;DHT22;9357;49.900;8.208;2023-04-01T02:51:10;10.40;99.90
18456;DHT22;9357;49.900;8.208;2023-04-01T02:52:43;10.40;99.90
18456;DHT22;9357;49.900;8.208;2023-04-01T02:54:17;10.40;99.90
18456;DHT22;9357;49.900;8.208;2023-04-01T02:55:50;10.40;99.90
18456;DHT22;9357;49.900;8.208;2023-04-01T02:57:23;10.40;99.90
18456;DHT22;9357;49.900;8.208;2023-04-01T02:58:56;10.40;99.90
18456;DHT22;9357;49.900;8.208;2023-04-01T03:00:29;10.40;99.90
18456;DHT22;9357;49.900;8.208;2023-04-01T03:02:01;10.40;99.90
18456;DHT22;9357;49.900;8.208;2023-04-01T03:03:34;10.40;99.90
18456;DHT22;9357;49.900;8.208;2023-04-01T03:05:08;10.40;99.90
18456;DHT22;9357;49.900;8.208;2023-04-01T03:06:40;10.40;99.90
18456;DHT22;9357;49.900;8.208;2023-04-01T03:08:13;10.40;99.90
18456;DHT22;9357;49.900;8.208;2023-04-01T03:09:46;10.40;99.90
18456;DHT22;9357;49.900;8.208;2023-04-01T03:11:19;10.40;99.90
18456;DHT22;9357;49.900;8.208;2023-04-01T03:12:52;10.40;99.90
18456;DHT22;9357;49.900;8.208;2023-04-01T03:14:25;10.40;99.90
18456;DHT22;9357;49.900;8.208;2023-04-01T03:15:58;10.40;99.90
18456;DHT22;9357;49.900;8.208;2023-04-01T03:17:31;10.40;99.90
18456;DHT22;9357;49.900;8.208;2023-04-01T03:19:03;10.40;99.90
18456;DHT22;9357;49.900;8.208;2023-04-01T03:20:35;10.40;99.90
18456;DHT22;9357;49.900;8.208;2023-04-01T03:22:08;10.40;99.90
18456;DHT22;9357;49.900;8.208;2023-04-01T03:23:42;10.40;99.90
18456;DHT22;9357;49.900;8.208;2023-04-01T03:25:16;10.40;99.90
18456;DHT22;9357;49.900;8.208;2023-04-01T03:26:48;10.40;99.90
18456;DHT22;9357;49.900;8.208;2023-04-01T03:28:21;10.40;99.90
18456;DHT22;9357;49.900;8.208;2023-04-01T03:29:54;10.50;99.90
18456;DHT22;9357;49.900;8.208;2023-04-01T03:31:27;10.50;99.90
18456;DHT22;9357;49.900;8.208;2023-04-01T03:33:00;10.40;99.90
18456;DHT22;9357;49.900;8.208;2023-04-01T03:34:33;10.50;99.90
18456;DHT22;9357;49.900;8.208;2023-04-01T03:36:06;10.40;99.90
18456;DHT22;9357;49.900;8.208;2023-04-01T03:37:39;10.40;99.90
18456;DHT22;9357;49.900;8.208;2023-04-01T03:39:12;10.50;99.90
18456;DHT22;9357;49.900;8.208;2023-04-01T03:40:45;10.50;99.90
18456;DHT22;9357;49.900;8.208;2023-04-01T03:42:18;10.50;99.90
18456;DHT22;9357;49.900;8.208;2023-04-01T03:43:53;10.50;99.90
18456;DHT22;9357;49.900;8.208;2023-04-01T03:45:25;10.40;99.90
18456;DHT22;9357;49.900;8.208;2023-04-01T03:46:57;10.40;99.90
18456;DHT22;9357;49.900;8.208;2023-04-01T03:48:30;10.40;99.90
18456;DHT22;9357;49.900;8.208;2023-04-01T03:50:03;10.40;99.90
18456;DHT22;9357;49.900;8.208;2023-04-01T03:51:36;10.40;99.90
18456;DHT22;9357;49.900;8.208;2023-04-01T03:53:10;10.40;99.90
18456;DHT22;9357;49.900;8.208;2023-04-01T03:54:43;10.40;99.90
18456;DHT22;9357;49.900;8.208;2023-04-01T03:56:17;10.40;99.90
18456;DHT22;9357;49.900;8.208;2023-04-01T03:57:50;10.40;99.90
18456;DHT22;9357;49.900;8.208;2023-04-01T03:59:23;10.40;99.90
18456;DHT22;9357;49.900;8.208;2023-04-01T04:00:55;10.40;99.90
18456;DHT22;9357;49.900;8.208;2023-04-01T04:02:28;10.40;99.90
18456;DHT22;9357;49.900;8.208;2023-04-01T04:04:01;10.50;99.90
18456;DHT22;9357;49.900;8.208;2023-04-01T04:05:34;10.50;99.90
18456;DHT22;9357;49.900;8.208;2023-04-01T04:07:07;10.40;99.90
18456;DHT22;9357;49.900;8.208;2023-04-01T04:08:38;10.40;99.90
18456;DHT22;9357;49.900;8.208;2023-04-01T04:10:11;10.40;99.90
18456;DHT22;9357;49.900;8.208;2023-04-01T04:11:45;10.40;99.90
18456;DHT22;9357;49.900;8.208;2023-04-01T04:13:19;10.50;99.90
18456;DHT22;9357;49.900;8.208;2023-04-01T04:14:51;10.40;99.90
18456;DHT22;9357;49.900;8.208;2023-04-01T04:16:24;10.40;99.90
18456;DHT22;9357;49.900;8.208;2023-04-01T04:17:56;10.40;99.90
18456;DHT22;9357;49.900;8.208;2023-04-01T04:19:32;10.40;99.90
18456;DHT22;9357;49.900;8.208;2023-04-01T04:21:06;10.40;99.90
18456;DHT22;9357;49.900;8.208;2023-04-01T04:22:38;10.40;99.90
18456;DHT22;9357;49.900;8.208;2023-04-01T04:24:11;10.40;99.90
18456;DHT22;9357;49.900;8.208;2023-04-01T04:25:53;10.40;99.90
18456;DHT22;9357;49.900;8.208;2023-04-01T04:27:28;10.40;99.90
18456;DHT22;9357;49.900;8.208;2023-04-01T04:29:01;10.40;99.90
18456;DHT22;9357;49.900;8.208;2023-04-01T04:30:34;10.40;99.90
18456;DHT22;9357;49.900;8.208;2023-04-01T04:32:06;10.40;99.90
18456;DHT22;9357;49.900;8.208;2023-04-01T04:33:39;10.40;99.90
18456;DHT22;9357;49.900;8.208;2023-04-01T04:35:12;10.40;99.90
18456;DHT22;9357;49.900;8.208;2023-04-01T04:36:45;10.40;99.90
18456;DHT22;9357;49.900;8.208;2023-04-01T04:38:17;10.40;99.90
18456;DHT22;9357;49.900;8.208;2023-04-01T04:39:49;10.40;99.90
18456;DHT22;9357;49.900;8.208;2023-04-01T04:41:22;10.40;99.90
18456;DHT22;9357;49.900;8.208;2023-04-01T04:42:56;10.40;99.90
18456;DHT22;9357;49.900;8.208;2023-04-01T04:44:29;10.40;99.90
18456;DHT22;9357;49.900;8.208;2023-04-01T04:46:04;10.40;99.90
18456;DHT22;9357;49.900;8.208;2023-04-01T04:47:37;10.40;99.90
18456;DHT22;9357;49.900;8.208;2023-04-01T04:49:10;10.40;99.90
18456;DHT22;9357;49.900;8.208;2023-04-01T04:50:43;10.30;99.90
18456;DHT22;9357;49.900;8.208;2023-04-01T04:52:16;10.30;99.90
18456;DHT22;9357;49.900;8.208;2023-04-01T04:53:48;10.30;99.90
18456;DHT22;9357;49.900;8.208;2023-04-01T04:55:23;10.30;99.90
18456;DHT22;9357;49.900;8.208;2023-04-01T04:56:55;10.30;99.90
18456;DHT22;9357;49.900;8.208;2023-04-01T04:58:29;10.40;99.90
18456;DHT22;9357;49.900;8.208;2023-04-01T05:00:03;10.30;99.90
18456;DHT22;9357;49.900;8.208;2023-04-01T05:01:36;10.30;99.90
18456;DHT22;9357;49.900;8.208;2023-04-01T05:03:09;10.30;99.90
18456;DHT22;9357;49.900;8.208;2023-04-01T05:04:42;10.30;99.90
18456;DHT22;9357;49.900;8.208;2023-04-01T05:06:16;10.30;99.90
18456;DHT22;9357;49.900;8.208;2023-04-01T05:07:49;10.30;99.90
18456;DHT22;9357;49.900;8.208;2023-04-01T05:09:20;10.30;99.90
18456;DHT22;9357;49.900;8.208;2023-04-01T05:10:53;10.30;99.90
18456;DHT22;9357;49.900;8.208;2023-04-01T05:12:26;10.20;99.90
18456;DHT22;9357;49.900;8.208;2023-04-01T05:14:00;10.30;99.90
18456;DHT22;9357;49.900;8.208;2023-04-01T05:15:33;10.20;99.90
18456;DHT22;9357;49.900;8.208;2023-04-01T05:17:08;10.30;99.90
18456;DHT22;9357;49.900;8.208;2023-04-01T05:18:40;10.30;99.90
18456;DHT22;9357;49.900;8.208;2023-04-01T05:20:13;10.20;99.90
18456;DHT22;9357;49.900;8.208;2023-04-01T05:21:46;10.20;99.90
18456;DHT22;9357;49.900;8.208;2023-04-01T05:23:20;10.20;99.90
18456;DHT22;9357;49.900;8.208;2023-04-01T05:24:53;10.20;99.90
18456;DHT22;9357;49.900;8.208;2023-04-01T05:26:26;10.20;99.90
18456;DHT22;9357;49.900;8.208;2023-04-01T05:27:58;10.20;99.90
18456;DHT22;9357;49.900;8.208;2023-04-01T05:29:32;10.20;99.90
18456;DHT22;9357;49.900;8.208;2023-04-01T05:31:07;10.20;99.90
18456;DHT22;9357;49.900;8.208;2023-04-01T05:32:39;10.20;99.90
18456;DHT22;9357;49.900;8.208;2023-04-01T05:34:13;10.30;99.90
18456;DHT22;9357;49.900;8.208;2023-04-01T05:35:46;10.30;99.90
18456;DHT22;9357;49.900;8.208;2023-04-01T05:37:19;10.30;99.90
18456;DHT22;9357;49.900;8.208;2023-04-01T05:38:54;10.30;99.90
18456;DHT22;9357;49.900;8.208;2023-04-01T05:40:28;10.30;99.90
18456;DHT22;9357;49.900;8.208;2023-04-01T05:42:01;10.30;99.90
18456;DHT22;9357;49.900;8.208;2023-04-01T05:43:35;10.30;99.90
18456;DHT22;9357;49.900;8.208;2023-04-01T05:45:10;10.20;99.90
18456;DHT22;9357;49.900;8.208;2023-04-01T05:46:43;10.20;99.90
18456;DHT22;9357;49.900;8.208;2023-04-01T05:48:15;10.20;99.90
18456;DHT22;9357;49.900;8.208;2023-04-01T05:49:48;10.20;99.90
18456;DHT22;9357;49.900;8.208;2023-04-01T05:51:21;10.20;99.90
18456;DHT22;9357;49.900;8.208;2023-04-01T05:52:53;10.20;99.90
18456;DHT22;9357;49.900;8.208;2023-04-01T05:54:26;10.20;99.90
18456;DHT22;9357;49.900;8.208;2023-04-01T05:56:02;10.20;99.90
18456;DHT22;9357;49.900;8.208;2023-04-01T05:57:34;10.20;99.90
18456;DHT22;9357;49.900;8.208;2023-04-01T05:59:09;10.20;99.90
18456;DHT22;9357;49.900;8.208;2023-04-01T06:00:43;10.20;99.90
18456;DHT22;9357;49.900;8.208;2023-04-01T06:02:18;10.20;99.90
18456;DHT22;9357;49.900;8.208;2023-04-01T06:03:51;10.20;99.90
18456;DHT22;9357;49.900;8.208;2023-04-01T06:05:27;10.20;99.90
18456;DHT22;9357;49.900;8.208;2023-04-01T06:06:59;10.20;99.90
18456;DHT22;9357;49.900;8.208;2023-04-01T06:08:33;10.20;99.90
18456;DHT22;9357;49.900;8.208;2023-04-01T06:10:11;10.20;99.90
18456;DHT22;9357;49.900;8.208;2023-04-01T06:11:55;10.20;99.90
18456;DHT22;9357;49.900;8.208;2023-04-01T06:13:44;10.20;99.90
18456;DHT22;9357;49.900;8.208;2023-04-01T06:15:33;10.20;99.90
18456;DHT22;9357;49.900;8.208;2023-04-01T06:17:19;10.30;99.90
18456;DHT22;9357;49.900;8.208;2023-04-01T06:19:05;10.30;99.90
18456;DHT22;9357;49.900;8.208;2023-04-01T06:20:48;10.30;99.90
18456;DHT22;9357;49.900;8.208;2023-04-01T06:22:42;10.30;99.90
18456;DHT22;9357;49.900;8.208;2023-04-01T06:24:32;10.30;99.90
18456;DHT22;9357;49.900;8.208;2023-04-01T06:26:24;10.30;99.90
18456;DHT22;9357;49.900;8.208;2023-04-01T06:28:11;10.40;99.90
18456;DHT22;9357;49.900;8.208;2023-04-01T06:30:03;10.30;99.90
18456;DHT22;9357;49.900;8.208;2023-04-01T06:33:58;10.30;99.90
18456;DHT22;9357;49.900;8.208;2023-04-01T06:35:48;10.40;99.90
18456;DHT22;9357;49.900;8.208;2023-04-01T06:37:41;10.40;99.90
18456;DHT22;9357;49.900;8.208;2023-04-01T06:39:54;10.40;99.90
18456;DHT22;9357;49.900;8.208;2023-04-01T06:41:51;10.30;99.90
18456;DHT22;9357;49.900;8.208;2023-04-01T06:43:37;10.40;99.90
18456;DHT22;9357;49.900;8.208;2023-04-01T06:45:26;10.40;99.90
18456;DHT22;9357;49.900;8.208;2023-04-01T06:47:14;10.40;99.90
18456;DHT22;9357;49.900;8.208;2023-04-01T06:49:05;10.40;99.90
18456;DHT22;9357;49.900;8.208;2023-04-01T06:50:45;10.40;99.90
18456;DHT22;9357;49.900;8.208;2023-04-01T06:52:25;10.40;99.90
18456;DHT22;9357;49.900;8.208;2023-04-01T06:54:04;10.40;99.90
18456;DHT22;9357;49.900;8.208;2023-04-01T06:55:43;10.40;99.90
18456;DHT22;9357;49.900;8.208;2023-04-01T06:57:23;10.50;99.90
18456;DHT22;9357;49.900;8.208;2023-04-01T06:59:01;10.40;99.90
18456;DHT22;9357;49.900;8.208;2023-04-01T07:00:36;10.50;99.90
18456;DHT22;9357;49.900;8.208;2023-04-01T07:02:19;10.50;99.90
18456;DHT22;9357;49.900;8.208;2023-04-01T07:03:58;10.50;99.90
18456;DHT22;9357;49.900;8.208;2023-04-01T07:05:33;10.60;99.90
18456;DHT22;9357;49.900;8.208;2023-04-01T07:07:14;10.60;99.90
18456;DHT22;9357;49.900;8.208;2023-04-01T07:08:49;10.60;99.90
18456;DHT22;9357;49.900;8.208;2023-04-01T07:10:27;10.70;99.90
18456;DHT22;9357;49.900;8.208;2023-04-01T07:12:09;10.70;99.90
18456;DHT22;9357;49.900;8.208;2023-04-01T07:13:47;10.70;99.90
18456;DHT22;9357;49.900;8.208;2023-04-01T07:15:24;10.70;99.90
18456;DHT22;9357;49.900;8.208;2023-04-01T07:17:02;10.80;99.90
18456;DHT22;9357;49.900;8.208;2023-04-01T07:18:41;10.80;99.90
18456;DHT22;9357;49.900;8.208;2023-04-01T07:20:22;10.80;99.90
18456;DHT22;9357;49.900;8.208;2023-04-01T07:22:03;10.80;99.90
18456;DHT22;9357;49.900;8.208;2023-04-01T07:23:40;10.80;99.90
18456;DHT22;9357;49.900;8.208;2023-04-01T07:25:17;10.90;99.90
18456;DHT22;9357;49.900;8.208;2023-04-01T07:26:53;10.90;99.90
18456;DHT22;9357;49.900;8.208;2023-04-01T07:28:30;10.90;99.90
18456;DHT22;9357;49.900;8.208;2023-04-01T07:30:13;11.00;99.90
18456;DHT22;9357;49.900;8.208;2023-04-01T07:33:54;11.00;99.90
18456;DHT22;9357;49.900;8.208;2023-04-01T07:35:38;11.00;99.90
18456;DHT22;9357;49.900;8.208;2023-04-01T07:37:15;11.00;99.90
18456;DHT22;9357;49.900;8.208;2023-04-01T07:38:57;11.10;99.90
18456;DHT22;9357;49.900;8.208;2023-04-01T07:40:39;11.10;99.90
18456;DHT22;9357;49.900;8.208;2023-04-01T07:42:19;11.20;99.90
18456;DHT22;9357;49.900;8.208;2023-04-01T07:44:00;11.20;99.90
18456;DHT22;9357;49.900;8.208;2023-04-01T07:45:39;11.20;99.90
18456;DHT22;9357;49.900;8.208;2023-04-01T07:49:13;11.30;99.90
18456;DHT22;9357;49.900;8.208;2023-04-01T07:50:56;11.30;99.90
18456;DHT22;9357;49.900;8.208;2023-04-01T07:52:36;11.40;99.90
18456;DHT22;9357;49.900;8.208;2023-04-01T07:54:18;11.40;99.90
18456;DHT22;9357;49.900;8.208;2023-04-01T07:56:02;11.40;99.90
18456;DHT22;9357;49.900;8.208;2023-04-01T07:57:42;11.50;99.90
18456;DHT22;9357;49.900;8.208;2023-04-01T07:59:19;11.40;99.90
18456;DHT22;9357;49.900;8.208;2023-04-01T08:01:02;11.50;99.90
18456;DHT22;9357;49.900;8.208;2023-04-01T08:02:46;11.50;99.90
18456;DHT22;9357;49.900;8.208;2023-04-01T08:04:31;11.40;99.90
18456;DHT22;9357;49.900;8.208;2023-04-01T08:06:14;11.40;99.90
18456;DHT22;9357;49.900;8.208;2023-04-01T08:07:56;11.40;99.90
18456;DHT22;9357;49.900;8.208;2023-04-01T08:09:36;11.40;99.90
18456;DHT22;9357;49.900;8.208;2023-04-01T08:11:20;11.40;99.90
18456;DHT22;9357;49.900;8.208;2023-04-01T08:13:03;11.40;99.90
18456;DHT22;9357;49.900;8.208;2023-04-01T08:14:48;11.40;99.90
18456;DHT22;9357;49.900;8.208;2023-04-01T08:16:32;11.40;99.90
18456;DHT22;9357;49.900;8.208;2023-04-01T08:18:16;11.40;99.90
18456;DHT22;9357;49.900;8.208;2023-04-01T08:20:07;11.40;99.90
18456;DHT22;9357;49.900;8.208;2023-04-01T08:21:45;11.30;99.90
18456;DHT22;9357;49.900;8.208;2023-04-01T08:23:22;11.40;99.90
18456;DHT22;9357;49.900;8.208;2023-04-01T08:25:00;11.40;99.90
18456;DHT22;9357;49.900;8.208;2023-04-01T08:26:37;11.30;99.90
18456;DHT22;9357;49.900;8.208;2023-04-01T08:28:17;11.30;99.90
18456;DHT22;9357;49.900;8.208;2023-04-01T08:29:56;11.40;99.90
18456;DHT22;9357;49.900;8.208;2023-04-01T08:31:33;11.40;99.90
18456;DHT22;9357;49.900;8.208;2023-04-01T08:33:12;11.40;99.90
18456;DHT22;9357;49.900;8.208;2023-04-01T08:34:50;11.40;99.90
18456;DHT22;9357;49.900;8.208;2023-04-01T08:36:29;11.50;99.90
18456;DHT22;9357;49.900;8.208;2023-04-01T08:38:11;11.40;99.90
18456;DHT22;9357;49.900;8.208;2023-04-01T08:39:48;11.40;99.90
18456;DHT22;9357;49.900;8.208;2023-04-01T08:41:45;11.50;99.90
18456;DHT22;9357;49.900;8.208;2023-04-01T08:47:42;11.40;99.90
18456;DHT22;9357;49.900;8.208;2023-04-01T08:49:38;11.50;99.90
18456;DHT22;9357;49.900;8.208;2023-04-01T08:51:43;11.50;99.90
18456;DHT22;9357;49.900;8.208;2023-04-01T08:53:27;11.60;99.90
18456;DHT22;9357;49.900;8.208;2023-04-01T08:55:30;11.60;99.90
18456;DHT22;9357;49.900;8.208;2023-04-01T08:57:12;11.70;99.90
18456;DHT22;9357;49.900;8.208;2023-04-01T08:59:03;11.70;99.90
18456;DHT22;9357;49.900;8.208;2023-04-01T09:00:46;11.70;99.90
18456;DHT22;9357;49.900;8.208;2023-04-01T09:02:43;11.70;99.90
18456;DHT22;9357;49.900;8.208;2023-04-01T09:04:39;11.80;99.90
18456;DHT22;9357;49.900;8.208;2023-04-01T09:06:33;11.80;99.90
18456;DHT22;9357;49.900;8.208;2023-04-01T09:08:16;11.80;99.90
18456;DHT22;9357;49.900;8.208;2023-04-01T09:10:17;11.70;99.90
18456;DHT22;9357;49.900;8.208;2023-04-01T09:14:21;11.70;99.90
18456;DHT22;9357;49.900;8.208;2023-04-01T09:16:22;11.70;99.90
18456;DHT22;9357;49.900;8.208;2023-04-01T09:18:13;11.70;99.90
18456;DHT22;9357;49.900;8.208;2023-04-01T09:20:09;11.70;99.90
18456;DHT22;9357;49.900;8.208;2023-04-01T09:22:19;11.70;99.90
18456;DHT22;9357;49.900;8.208;2023-04-01T09:24:19;11.70;99.90
18456;DHT22;9357;49.900;8.208;2023-04-01T09:26:12;11.70;99.90
18456;DHT22;9357;49.900;8.208;2023-04-01T09:27:56;11.80;99.90
18456;DHT22;9357;49.900;8.208;2023-04-01T09:29:51;11.80;99.90
18456;DHT22;9357;49.900;8.208;2023-04-01T09:31:42;11.80;99.90
18456;DHT22;9357;49.900;8.208;2023-04-01T09:33:51;11.90;99.90
18456;DHT22;9357;49.900;8.208;2023-04-01T09:35:42;11.80;99.90
18456;DHT22;9357;49.900;8.208;2023-04-01T09:37:30;11.80;99.90
18456;DHT22;9357;49.900;8.208;2023-04-01T09:39:25;11.80;99.90
18456;DHT22;9357;49.900;8.208;2023-04-01T09:41:10;11.80;99.90
18456;DHT22;9357;49.900;8.208;2023-04-01T09:44:53;11.80;99.90
18456;DHT22;9357;49.900;8.208;2023-04-01T09:46:39;11.80;99.90
18456;DHT22;9357;49.900;8.208;2023-04-01T09:48:25;11.80;99.90
18456;DHT22;9357;49.900;8.208;2023-04-01T09:50:17;11.80;99.90
18456;DHT22;9357;49.900;8.208;2023-04-01T09:52:03;11.90;99.90
18456;DHT22;9357;49.900;8.208;2023-04-01T09:53:50;11.90;99.90
18456;DHT22;9357;49.900;8.208;2023-04-01T09:55:53;11.80;99.90
18456;DHT22;9357;49.900;8.208;2023-04-01T09:57:57;11.90;99.90
18456;DHT22;9357;49.900;8.208;2023-04-01T09:59:49;11.90;99.90
18456;DHT22;9357;49.900;8.208;2023-04-01T10:02:00;11.90;99.90
18456;DHT22;9357;49.900;8.208;2023-04-01T10:08:19;11.90;99.90
18456;DHT22;9357;49.900;8.208;2023-04-01T10:17:15;12.00;99.90
18456;DHT22;9357;49.900;8.208;2023-04-01T10:19:17;12.00;99.90
18456;DHT22;9357;49.900;8.208;2023-04-01T10:23:18;12.00;99.90
18456;DHT22;9357;49.900;8.208;2023-04-01T10:25:15;12.10;99.90
18456;DHT22;9357;49.900;8.208;2023-04-01T10:27:10;12.10;99.90
18456;DHT22;9357;49.900;8.208;2023-04-01T10:29:19;12.10;99.90
18456;DHT22;9357;49.900;8.208;2023-04-01T10:33:39;12.20;99.90
18456;DHT22;9357;49.900;8.208;2023-04-01T10:35:45;12.20;99.90
18456;DHT22;9357;49.900;8.208;2023-04-01T10:37:41;12.20;99.90
18456;DHT22;9357;49.900;8.208;2023-04-01T10:42:02;12.20;99.90
18456;DHT22;9357;49.900;8.208;2023-04-01T10:46:16;12.20;99.90
18456;DHT22;9357;49.900;8.208;2023-04-01T10:48:22;12.30;99.90
18456;DHT22;9357;49.900;8.208;2023-04-01T10:50:13;12.30;99.90
18456;DHT22;9357;49.900;8.208;2023-04-01T10:52:12;12.30;99.90
18456;DHT22;9357;49.900;8.208;2023-04-01T10:54:21;12.30;99.90
18456;DHT22;9357;49.900;8.208;2023-04-01T10:56:34;12.30;99.90
18456;DHT22;9357;49.900;8.208;2023-04-01T10:58:54;12.40;99.90
18456;DHT22;9357;49.900;8.208;2023-04-01T11:00:55;12.40;99.90
18456;DHT22;9357;49.900;8.208;2023-04-01T11:05:32;12.40;99.90
18456;DHT22;9357;49.900;8.208;2023-04-01T11:16:11;12.40;99.90
18456;DHT22;9357;49.900;8.208;2023-04-01T11:18:10;12.40;99.90
18456;DHT22;9357;49.900;8.208;2023-04-01T11:22:27;12.50;99.90
18456;DHT22;9357;49.900;8.208;2023-04-01T11:24:29;12.50;99.90
18456;DHT22;9357;49.900;8.208;2023-04-01T11:26:09;12.50;99.90
18456;DHT22;9357;49.900;8.208;2023-04-01T11:27:55;12.50;99.90
18456;DHT22;9357;49.900;8.208;2023-04-01T11:30:02;12.50;99.90
18456;DHT22;9357;49.900;8.208;2023-04-01T11:31:54;12.50;99.90
18456;DHT22;9357;49.900;8.208;2023-04-01T11:33:34;12.50;99.90
18456;DHT22;9357;49.900;8.208;2023-04-01T11:35:39;12.50;99.90